sensor_id;sensor_type;location;lat;lon;timestamp;pressure;altitude;pressure_sealevel;temperature
41593;BMP180;28026;48.562;14.440;2024-01-27T00:02:15;94778.00;;;10.30
41593;BMP180;28026;48.562;14.440;2024-01-27T00:04:46;94779.00;;;10.30
41593;BMP180;28026;48.562;14.440;2024-01-27T00:07:17;94791.00;;;10.20
41593;BMP180;28026;48.562;14.440;2024-01-27T00:09:48;94795.00;;;10.20
41593;BMP180;28026;48.562;14.440;2024-01-27T00:12:19;94794.00;;;10.20
41593;BMP180;28026;48.562;14.440;2024-01-27T00:14:50;94800.00;;;10.20
41593;BMP180;28026;48.562;14.440;2024-01-27T00:17:21;94800.00;;;10.30
41593;BMP180;28026;48.562;14.440;2024-01-27T00:19:55;94804.00;;;10.30
41593;BMP180;28026;48.562;14.440;2024-01-27T00:22:26;94812.00;;;10.30
41593;BMP180;28026;48.562;14.440;2024-01-27T00:24:57;94809.00;;;10.30
41593;BMP180;28026;48.562;14.440;2024-01-27T00:27:28;94819.00;;;10.30
41593;BMP180;28026;48.562;14.440;2024-01-27T00:29:59;94820.00;;;10.30
41593;BMP180;28026;48.562;14.440;2024-01-27T00:32:29;94826.00;;;10.30
41593;BMP180;28026;48.562;14.440;2024-01-27T00:35:01;94818.00;;;10.20
41593;BMP180;28026;48.562;14.440;2024-01-27T00:37:32;94816.00;;;10.20
41593;BMP180;28026;48.562;14.440;2024-01-27T00:40:03;94812.00;;;10.10
41593;BMP180;28026;48.562;14.440;2024-01-27T00:42:34;94807.00;;;10.10
41593;BMP180;28026;48.562;14.440;2024-01-27T00:45:06;94813.00;;;10.10
41593;BMP180;28026;48.562;14.440;2024-01-27T00:47:37;94814.00;;;10.10
41593;BMP180;28026;48.562;14.440;2024-01-27T00:50:08;94806.00;;;10.10
41593;BMP180;28026;48.562;14.440;2024-01-27T00:52:40;94797.00;;;10.00
41593;BMP180;28026;48.562;14.440;2024-01-27T00:55:10;94808.00;;;10.00
41593;BMP180;28026;48.562;14.440;2024-01-27T00:57:41;94808.00;;;9.90
41593;BMP180;28026;48.562;14.440;2024-01-27T01:00:13;94807.00;;;9.90
41593;BMP180;28026;48.562;14.440;2024-01-27T01:02:44;94816.00;;;9.90
41593;BMP180;28026;48.562;14.440;2024-01-27T01:05:15;94808.00;;;9.90
41593;BMP180;28026;48.562;14.440;2024-01-27T01:07:46;94802.00;;;9.90
41593;BMP180;28026;48.562;14.440;2024-01-27T01:10:17;94806.00;;;9.90
41593;BMP180;28026;48.562;14.440;2024-01-27T01:12:48;94803.00;;;9.90
41593;BMP180;28026;48.562;14.440;2024-01-27T01:15:19;94811.00;;;10.00
41593;BMP180;28026;48.562;14.440;2024-01-27T01:17:50;94805.00;;;10.00
41593;BMP180;28026;48.562;14.440;2024-01-27T01:20:21;94800.00;;;10.00
41593;BMP180;28026;48.562;14.440;2024-01-27T01:22:52;94803.00;;;10.00
41593;BMP180;28026;48.562;14.440;2024-01-27T01:25:24;94815.00;;;9.90
41593;BMP180;28026;48.562;14.440;2024-01-27T01:27:54;94812.00;;;9.90
41593;BMP180;28026;48.562;14.440;2024-01-27T01:30:25;94827.00;;;9.90
41593;BMP180;28026;48.562;14.440;2024-01-27T01:32:56;94832.00;;;9.90
41593;BMP180;28026;48.562;14.440;2024-01-27T01:35:27;94829.00;;;9.90
41593;BMP180;28026;48.562;14.440;2024-01-27T01:37:58;94837.00;;;9.90
41593;BMP180;28026;48.562;14.440;2024-01-27T01:40:29;94833.00;;;9.80
41593;BMP180;28026;48.562;14.440;2024-01-27T01:42:59;94837.00;;;9.70
41593;BMP180;28026;48.562;14.440;2024-01-27T01:45:30;94829.00;;;9.60
41593;BMP180;28026;48.562;14.440;2024-01-27T01:48:01;94825.00;;;9.60
41593;BMP180;28026;48.562;14.440;2024-01-27T01:50:33;94838.00;;;9.50
41593;BMP180;28026;48.562;14.440;2024-01-27T01:53:05;94839.00;;;9.50
41593;BMP180;28026;48.562;14.440;2024-01-27T01:55:37;94829.00;;;9.40
41593;BMP180;28026;48.562;14.440;2024-01-27T01:58:08;94831.00;;;9.30
41593;BMP180;28026;48.562;14.440;2024-01-27T02:00:39;94827.00;;;9.30
41593;BMP180;28026;48.562;14.440;2024-01-27T02:03:12;94824.00;;;9.20
41593;BMP180;28026;48.562;14.440;2024-01-27T02:05:43;94842.00;;;9.20
41593;BMP180;28026;48.562;14.440;2024-01-27T02:08:14;94833.00;;;9.20
41593;BMP180;28026;48.562;14.440;2024-01-27T02:10:45;94847.00;;;9.20
41593;BMP180;28026;48.562;14.440;2024-01-27T02:13:22;94846.00;;;9.10
41593;BMP180;28026;48.562;14.440;2024-01-27T02:15:53;94843.00;;;9.10
41593;BMP180;28026;48.562;14.440;2024-01-27T02:18:24;94838.00;;;9.10
41593;BMP180;28026;48.562;14.440;2024-01-27T02:20:55;94837.00;;;9.10
41593;BMP180;28026;48.562;14.440;2024-01-27T02:23:26;94841.00;;;9.10
41593;BMP180;28026;48.562;14.440;2024-01-27T02:25:57;94846.00;;;9.00
41593;BMP180;28026;48.562;14.440;2024-01-27T02:28:28;94846.00;;;9.00
41593;BMP180;28026;48.562;14.440;2024-01-27T02:31:02;94851.00;;;9.00
41593;BMP180;28026;48.562;14.440;2024-01-27T02:33:33;94846.00;;;9.00
41593;BMP180;28026;48.562;14.440;2024-01-27T02:36:05;94855.00;;;9.00
41593;BMP180;28026;48.562;14.440;2024-01-27T02:38:36;94843.00;;;9.00
41593;BMP180;28026;48.562;14.440;2024-01-27T02:41:06;94844.00;;;9.00
41593;BMP180;28026;48.562;14.440;2024-01-27T02:43:38;94843.00;;;9.00
41593;BMP180;28026;48.562;14.440;2024-01-27T02:46:12;94844.00;;;9.10
41593;BMP180;28026;48.562;14.440;2024-01-27T02:48:43;94839.00;;;9.10
41593;BMP180;28026;48.562;14.440;2024-01-27T02:51:19;94830.00;;;9.10
41593;BMP180;28026;48.562;14.440;2024-01-27T02:53:51;94838.00;;;9.20
41593;BMP180;28026;48.562;14.440;2024-01-27T02:56:22;94826.00;;;9.10
41593;BMP180;28026;48.562;14.440;2024-01-27T02:58:52;94828.00;;;9.10
41593;BMP180;28026;48.562;14.440;2024-01-27T03:01:23;94828.00;;;9.10
41593;BMP180;28026;48.562;14.440;2024-01-27T03:03:55;94841.00;;;9.10
41593;BMP180;28026;48.562;14.440;2024-01-27T03:06:26;94836.00;;;9.10
41593;BMP180;28026;48.562;14.440;2024-01-27T03:08:56;94857.00;;;9.00
41593;BMP180;28026;48.562;14.440;2024-01-27T03:11:27;94861.00;;;9.00
41593;BMP180;28026;48.562;14.440;2024-01-27T03:13:58;94861.00;;;9.00
41593;BMP180;28026;48.562;14.440;2024-01-27T03:16:29;94864.00;;;9.00
41593;BMP180;28026;48.562;14.440;2024-01-27T03:19:00;94862.00;;;9.00
41593;BMP180;28026;48.562;14.440;2024-01-27T03:21:31;94881.00;;;9.00
41593;BMP180;28026;48.562;14.440;2024-01-27T03:24:02;94881.00;;;9.10
41593;BMP180;28026;48.562;14.440;2024-01-27T03:26:33;94883.00;;;9.10
41593;BMP180;28026;48.562;14.440;2024-01-27T03:29:04;94881.00;;;9.10
41593;BMP180;28026;48.562;14.440;2024-01-27T03:31:35;94894.00;;;9.10
41593;BMP180;28026;48.562;14.440;2024-01-27T03:34:06;94889.00;;;9.10
41593;BMP180;28026;48.562;14.440;2024-01-27T03:36:37;94908.00;;;9.10
41593;BMP180;28026;48.562;14.440;2024-01-27T03:39:08;94899.00;;;9.10
41593;BMP180;28026;48.562;14.440;2024-01-27T03:41:39;94897.00;;;9.00
41593;BMP180;28026;48.562;14.440;2024-01-27T03:44:10;94906.00;;;9.00
41593;BMP180;28026;48.562;14.440;2024-01-27T03:46:41;94893.00;;;8.90
41593;BMP180;28026;48.562;14.440;2024-01-27T03:49:12;94908.00;;;8.90
41593;BMP180;28026;48.562;14.440;2024-01-27T03:51:43;94909.00;;;8.90
41593;BMP180;28026;48.562;14.440;2024-01-27T03:54:13;94898.00;;;8.90
41593;BMP180;28026;48.562;14.440;2024-01-27T03:56:44;94911.00;;;8.80
41593;BMP180;28026;48.562;14.440;2024-01-27T03:59:15;94910.00;;;8.70
41593;BMP180;28026;48.562;14.440;2024-01-27T04:01:47;94906.00;;;8.70
41593;BMP180;28026;48.562;14.440;2024-01-27T04:04:18;94900.00;;;8.60
41593;BMP180;28026;48.562;14.440;2024-01-27T04:06:48;94899.00;;;8.60
41593;BMP180;28026;48.562;14.440;2024-01-27T04:09:19;94904.00;;;8.50
41593;BMP180;28026;48.562;14.440;2024-01-27T04:11:51;94898.00;;;8.50
41593;BMP180;28026;48.562;14.440;2024-01-27T04:14:22;94910.00;;;8.50
41593;BMP180;28026;48.562;14.440;2024-01-27T04:16:52;94909.00;;;8.50
41593;BMP180;28026;48.562;14.440;2024-01-27T04:19:23;94913.00;;;8.50
41593;BMP180;28026;48.562;14.440;2024-01-27T04:21:54;94905.00;;;8.40
41593;BMP180;28026;48.562;14.440;2024-01-27T04:24:25;94927.00;;;8.40
41593;BMP180;28026;48.562;14.440;2024-01-27T04:26:59;94937.00;;;8.40
41593;BMP180;28026;48.562;14.440;2024-01-27T04:29:30;94938.00;;;8.40
41593;BMP180;28026;48.562;14.440;2024-01-27T04:32:01;94941.00;;;8.50
41593;BMP180;28026;48.562;14.440;2024-01-27T04:34:32;94949.00;;;8.50
41593;BMP180;28026;48.562;14.440;2024-01-27T04:37:03;94952.00;;;8.50
41593;BMP180;28026;48.562;14.440;2024-01-27T04:39:34;94958.00;;;8.50
41593;BMP180;28026;48.562;14.440;2024-01-27T04:42:06;94956.00;;;8.60
41593;BMP180;28026;48.562;14.440;2024-01-27T04:44:40;94961.00;;;8.60
41593;BMP180;28026;48.562;14.440;2024-01-27T04:47:12;94963.00;;;8.60
41593;BMP180;28026;48.562;14.440;2024-01-27T04:49:43;94966.00;;;8.70
41593;BMP180;28026;48.562;14.440;2024-01-27T04:52:13;94969.00;;;8.70
41593;BMP180;28026;48.562;14.440;2024-01-27T04:54:44;94968.00;;;8.70
41593;BMP180;28026;48.562;14.440;2024-01-27T04:57:16;94970.00;;;8.70
41593;BMP180;28026;48.562;14.440;2024-01-27T04:59:47;94981.00;;;8.70
41593;BMP180;28026;48.562;14.440;2024-01-27T05:02:18;94967.00;;;8.70
41593;BMP180;28026;48.562;14.440;2024-01-27T05:04:49;94984.00;;;8.70
41593;BMP180;28026;48.562;14.440;2024-01-27T05:07:20;94981.00;;;8.70
41593;BMP180;28026;48.562;14.440;2024-01-27T05:09:51;94990.00;;;8.70
41593;BMP180;28026;48.562;14.440;2024-01-27T05:12:22;94994.00;;;8.70
41593;BMP180;28026;48.562;14.440;2024-01-27T05:14:53;94986.00;;;8.60
41593;BMP180;28026;48.562;14.440;2024-01-27T05:17:24;94983.00;;;8.60
41593;BMP180;28026;48.562;14.440;2024-01-27T05:19:55;94996.00;;;8.60
41593;BMP180;28026;48.562;14.440;2024-01-27T05:22:26;94995.00;;;8.60
41593;BMP180;28026;48.562;14.440;2024-01-27T05:24:57;94985.00;;;8.50
41593;BMP180;28026;48.562;14.440;2024-01-27T05:27:28;94994.00;;;8.50
41593;BMP180;28026;48.562;14.440;2024-01-27T05:29:59;94993.00;;;8.40
41593;BMP180;28026;48.562;14.440;2024-01-27T05:32:30;94999.00;;;8.40
41593;BMP180;28026;48.562;14.440;2024-01-27T05:35:01;94998.00;;;8.40
41593;BMP180;28026;48.562;14.440;2024-01-27T05:37:31;95000.00;;;8.30
41593;BMP180;28026;48.562;14.440;2024-01-27T05:40:03;94995.00;;;8.30
41593;BMP180;28026;48.562;14.440;2024-01-27T05:42:34;94997.00;;;8.30
41593;BMP180;28026;48.562;14.440;2024-01-27T05:45:06;94992.00;;;8.30
41593;BMP180;28026;48.562;14.440;2024-01-27T05:47:38;94999.00;;;8.20
41593;BMP180;28026;48.562;14.440;2024-01-27T05:50:09;94989.00;;;8.20
41593;BMP180;28026;48.562;14.440;2024-01-27T05:52:40;94988.00;;;8.10
41593;BMP180;28026;48.562;14.440;2024-01-27T05:55:11;94989.00;;;8.00
41593;BMP180;28026;48.562;14.440;2024-01-27T05:57:43;94982.00;;;8.00
41593;BMP180;28026;48.562;14.440;2024-01-27T06:00:14;94986.00;;;7.90
41593;BMP180;28026;48.562;14.440;2024-01-27T06:02:45;94978.00;;;7.80
41593;BMP180;28026;48.562;14.440;2024-01-27T06:05:16;94980.00;;;7.80
41593;BMP180;28026;48.562;14.440;2024-01-27T06:07:47;94992.00;;;7.80
41593;BMP180;28026;48.562;14.440;2024-01-27T06:10:19;94976.00;;;7.80
41593;BMP180;28026;48.562;14.440;2024-01-27T06:12:50;94996.00;;;7.70
41593;BMP180;28026;48.562;14.440;2024-01-27T06:15:21;94989.00;;;7.80
41593;BMP180;28026;48.562;14.440;2024-01-27T06:17:52;94986.00;;;7.70
41593;BMP180;28026;48.562;14.440;2024-01-27T06:20:23;94999.00;;;7.70
41593;BMP180;28026;48.562;14.440;2024-01-27T06:22:54;95007.00;;;7.70
41593;BMP180;28026;48.562;14.440;2024-01-27T06:25:25;94995.00;;;7.70
41593;BMP180;28026;48.562;14.440;2024-01-27T06:27:56;94998.00;;;7.70
41593;BMP180;28026;48.562;14.440;2024-01-27T06:30:26;94998.00;;;7.70
41593;BMP180;28026;48.562;14.440;2024-01-27T06:32:57;95004.00;;;7.60
41593;BMP180;28026;48.562;14.440;2024-01-27T06:35:28;95000.00;;;7.60
41593;BMP180;28026;48.562;14.440;2024-01-27T06:37:59;95004.00;;;7.60
41593;BMP180;28026;48.562;14.440;2024-01-27T06:40:30;95014.00;;;7.60
41593;BMP180;28026;48.562;14.440;2024-01-27T06:43:01;95013.00;;;7.50
41593;BMP180;28026;48.562;14.440;2024-01-27T06:45:31;95011.00;;;7.50
41593;BMP180;28026;48.562;14.440;2024-01-27T06:48:03;94994.00;;;7.50
41593;BMP180;28026;48.562;14.440;2024-01-27T06:50:34;95006.00;;;7.50
41593;BMP180;28026;48.562;14.440;2024-01-27T06:53:05;95021.00;;;7.50
41593;BMP180;28026;48.562;14.440;2024-01-27T06:55:36;95023.00;;;7.50
41593;BMP180;28026;48.562;14.440;2024-01-27T06:58:07;95024.00;;;7.50
41593;BMP180;28026;48.562;14.440;2024-01-27T07:00:38;95033.00;;;7.50
41593;BMP180;28026;48.562;14.440;2024-01-27T07:03:08;95039.00;;;7.50
41593;BMP180;28026;48.562;14.440;2024-01-27T07:05:40;95043.00;;;7.50
41593;BMP180;28026;48.562;14.440;2024-01-27T07:08:11;95041.00;;;7.60
41593;BMP180;28026;48.562;14.440;2024-01-27T07:10:42;95044.00;;;7.60
41593;BMP180;28026;48.562;14.440;2024-01-27T07:13:13;95042.00;;;7.70
41593;BMP180;28026;48.562;14.440;2024-01-27T07:29:42;95066.00;;;8.40
41593;BMP180;28026;48.562;14.440;2024-01-27T07:32:13;95062.00;;;8.40
41593;BMP180;28026;48.562;14.440;2024-01-27T07:34:44;95082.00;;;8.40
41593;BMP180;28026;48.562;14.440;2024-01-27T07:37:15;95070.00;;;8.40
41593;BMP180;28026;48.562;14.440;2024-01-27T07:39:46;95068.00;;;8.40
41593;BMP180;28026;48.562;14.440;2024-01-27T07:42:19;95079.00;;;8.40
41593;BMP180;28026;48.562;14.440;2024-01-27T07:44:50;95086.00;;;8.40
41593;BMP180;28026;48.562;14.440;2024-01-27T07:47:21;95097.00;;;8.40
41593;BMP180;28026;48.562;14.440;2024-01-27T07:49:52;95088.00;;;8.40
41593;BMP180;28026;48.562;14.440;2024-01-27T07:52:23;95100.00;;;8.50
41593;BMP180;28026;48.562;14.440;2024-01-27T07:54:53;95095.00;;;8.60
41593;BMP180;28026;48.562;14.440;2024-01-27T07:57:25;95099.00;;;8.70
41593;BMP180;28026;48.562;14.440;2024-01-27T07:59:55;95098.00;;;8.70
41593;BMP180;28026;48.562;14.440;2024-01-27T08:02:26;95108.00;;;8.80
41593;BMP180;28026;48.562;14.440;2024-01-27T08:04:57;95108.00;;;8.90
41593;BMP180;28026;48.562;14.440;2024-01-27T08:07:28;95104.00;;;9.00
41593;BMP180;28026;48.562;14.440;2024-01-27T08:09:59;95108.00;;;9.00
41593;BMP180;28026;48.562;14.440;2024-01-27T08:12:29;95108.00;;;9.10
41593;BMP180;28026;48.562;14.440;2024-01-27T08:15:01;95117.00;;;9.10
41593;BMP180;28026;48.562;14.440;2024-01-27T08:17:32;95111.00;;;9.10
41593;BMP180;28026;48.562;14.440;2024-01-27T08:20:03;95101.00;;;9.10
41593;BMP180;28026;48.562;14.440;2024-01-27T08:22:34;95112.00;;;9.10
41593;BMP180;28026;48.562;14.440;2024-01-27T08:25:06;95104.00;;;9.20
41593;BMP180;28026;48.562;14.440;2024-01-27T08:27:37;95098.00;;;9.20
41593;BMP180;28026;48.562;14.440;2024-01-27T08:30:08;95084.00;;;9.20
41593;BMP180;28026;48.562;14.440;2024-01-27T08:32:40;95082.00;;;9.10
41593;BMP180;28026;48.562;14.440;2024-01-27T08:35:11;95082.00;;;9.00
41593;BMP180;28026;48.562;14.440;2024-01-27T08:37:42;95086.00;;;9.00
41593;BMP180;28026;48.562;14.440;2024-01-27T08:40:13;95091.00;;;9.00
41593;BMP180;28026;48.562;14.440;2024-01-27T08:42:44;95094.00;;;9.00
41593;BMP180;28026;48.562;14.440;2024-01-27T08:45:15;95101.00;;;9.00
41593;BMP180;28026;48.562;14.440;2024-01-27T08:47:46;95105.00;;;9.00
41593;BMP180;28026;48.562;14.440;2024-01-27T08:50:17;95105.00;;;9.10
41593;BMP180;28026;48.562;14.440;2024-01-27T08:52:48;95111.00;;;9.10
41593;BMP180;28026;48.562;14.440;2024-01-27T08:55:19;95106.00;;;9.20
41593;BMP180;28026;48.562;14.440;2024-01-27T08:57:51;95110.00;;;9.20
41593;BMP180;28026;48.562;14.440;2024-01-27T09:00:22;95108.00;;;9.20
41593;BMP180;28026;48.562;14.440;2024-01-27T09:02:54;95116.00;;;9.30
41593;BMP180;28026;48.562;14.440;2024-01-27T09:05:25;95105.00;;;9.40
41593;BMP180;28026;48.562;14.440;2024-01-27T09:07:58;95117.00;;;9.40
41593;BMP180;28026;48.562;14.440;2024-01-27T09:10:29;95123.00;;;9.40
41593;BMP180;28026;48.562;14.440;2024-01-27T09:13:00;95124.00;;;9.50
41593;BMP180;28026;48.562;14.440;2024-01-27T09:15:31;95133.00;;;9.50
41593;BMP180;28026;48.562;14.440;2024-01-27T09:18:02;95135.00;;;9.60
41593;BMP180;28026;48.562;14.440;2024-01-27T09:20:34;95148.00;;;9.70
41593;BMP180;28026;48.562;14.440;2024-01-27T09:23:05;95148.00;;;9.80
41593;BMP180;28026;48.562;14.440;2024-01-27T09:25:36;95147.00;;;9.80
41593;BMP180;28026;48.562;14.440;2024-01-27T09:28:07;95141.00;;;9.80
41593;BMP180;28026;48.562;14.440;2024-01-27T09:30:38;95141.00;;;10.00
41593;BMP180;28026;48.562;14.440;2024-01-27T09:33:09;95153.00;;;10.10
41593;BMP180;28026;48.562;14.440;2024-01-27T09:35:40;95155.00;;;10.20
41593;BMP180;28026;48.562;14.440;2024-01-27T09:38:11;95160.00;;;10.30
41593;BMP180;28026;48.562;14.440;2024-01-27T09:40:46;95149.00;;;10.40
41593;BMP180;28026;48.562;14.440;2024-01-27T09:43:19;95155.00;;;10.60
41593;BMP180;28026;48.562;14.440;2024-01-27T09:45:50;95180.00;;;10.60
41593;BMP180;28026;48.562;14.440;2024-01-27T09:48:21;95176.00;;;10.80
41593;BMP180;28026;48.562;14.440;2024-01-27T09:50:53;95177.00;;;10.80
41593;BMP180;28026;48.562;14.440;2024-01-27T09:53:26;95175.00;;;10.90
41593;BMP180;28026;48.562;14.440;2024-01-27T09:55:59;95173.00;;;11.10
41593;BMP180;28026;48.562;14.440;2024-01-27T09:58:32;95180.00;;;11.20
41593;BMP180;28026;48.562;14.440;2024-01-27T10:01:04;95180.00;;;11.20
41593;BMP180;28026;48.562;14.440;2024-01-27T10:03:41;95182.00;;;11.20
41593;BMP180;28026;48.562;14.440;2024-01-27T10:06:13;95186.00;;;11.30
41593;BMP180;28026;48.562;14.440;2024-01-27T10:08:54;95184.00;;;11.20
41593;BMP180;28026;48.562;14.440;2024-01-27T10:11:28;95174.00;;;11.20
41593;BMP180;28026;48.562;14.440;2024-01-27T10:14:01;95178.00;;;11.20
41593;BMP180;28026;48.562;14.440;2024-01-27T10:16:45;95168.00;;;11.30
41593;BMP180;28026;48.562;14.440;2024-01-27T10:19:18;95161.00;;;11.20
41593;BMP180;28026;48.562;14.440;2024-01-27T10:22:01;95167.00;;;11.20
41593;BMP180;28026;48.562;14.440;2024-01-27T10:24:33;95167.00;;;11.20
41593;BMP180;28026;48.562;14.440;2024-01-27T10:27:07;95175.00;;;11.20
41593;BMP180;28026;48.562;14.440;2024-01-27T10:29:37;95165.00;;;11.20
41593;BMP180;28026;48.562;14.440;2024-01-27T10:32:09;95167.00;;;11.30
41593;BMP180;28026;48.562;14.440;2024-01-27T10:34:40;95167.00;;;11.40
41593;BMP180;28026;48.562;14.440;2024-01-27T10:37:14;95162.00;;;11.30
41593;BMP180;28026;48.562;14.440;2024-01-27T10:39:47;95160.00;;;11.30
41593;BMP180;28026;48.562;14.440;2024-01-27T10:42:19;95164.00;;;11.30
41593;BMP180;28026;48.562;14.440;2024-01-27T10:44:51;95155.00;;;11.40
41593;BMP180;28026;48.562;14.440;2024-01-27T10:47:27;95157.00;;;11.50
41593;BMP180;28026;48.562;14.440;2024-01-27T10:50:01;95160.00;;;11.50
41593;BMP180;28026;48.562;14.440;2024-01-27T10:52:32;95153.00;;;11.60
41593;BMP180;28026;48.562;14.440;2024-01-27T10:55:06;95152.00;;;11.50
41593;BMP180;28026;48.562;14.440;2024-01-27T10:57:39;95154.00;;;11.60
41593;BMP180;28026;48.562;14.440;2024-01-27T11:00:13;95160.00;;;11.60
41593;BMP180;28026;48.562;14.440;2024-01-27T11:02:46;95157.00;;;11.60
41593;BMP180;28026;48.562;14.440;2024-01-27T11:05:24;95143.00;;;11.70
41593;BMP180;28026;48.562;14.440;2024-01-27T11:07:59;95151.00;;;11.80
41593;BMP180;28026;48.562;14.440;2024-01-27T11:10:30;95141.00;;;11.80
41593;BMP180;28026;48.562;14.440;2024-01-27T11:13:07;95155.00;;;11.90
41593;BMP180;28026;48.562;14.440;2024-01-27T11:15:50;95159.00;;;12.00
41593;BMP180;28026;48.562;14.440;2024-01-27T11:18:22;95160.00;;;12.10
41593;BMP180;28026;48.562;14.440;2024-01-27T11:20:56;95159.00;;;12.30
41593;BMP180;28026;48.562;14.440;2024-01-27T11:23:34;95169.00;;;12.30
41593;BMP180;28026;48.562;14.440;2024-01-27T11:26:08;95156.00;;;12.20
41593;BMP180;28026;48.562;14.440;2024-01-27T11:28:39;95159.00;;;12.10
41593;BMP180;28026;48.562;14.440;2024-01-27T11:31:11;95169.00;;;12.10
41593;BMP180;28026;48.562;14.440;2024-01-27T11:33:44;95161.00;;;12.10
41593;BMP180;28026;48.562;14.440;2024-01-27T11:36:24;95154.00;;;12.10
41593;BMP180;28026;48.562;14.440;2024-01-27T11:38:55;95141.00;;;12.00
41593;BMP180;28026;48.562;14.440;2024-01-27T11:41:29;95138.00;;;12.00
41593;BMP180;28026;48.562;14.440;2024-01-27T11:44:00;95151.00;;;12.00
41593;BMP180;28026;48.562;14.440;2024-01-27T11:46:31;95143.00;;;12.20
41593;BMP180;28026;48.562;14.440;2024-01-27T11:49:03;95144.00;;;12.20
41593;BMP180;28026;48.562;14.440;2024-01-27T11:51:35;95139.00;;;12.10
41593;BMP180;28026;48.562;14.440;2024-01-27T11:54:06;95134.00;;;12.10
41593;BMP180;28026;48.562;14.440;2024-01-27T11:56:37;95140.00;;;12.10
41593;BMP180;28026;48.562;14.440;2024-01-27T11:59:07;95133.00;;;12.10
41593;BMP180;28026;48.562;14.440;2024-01-27T12:01:40;95135.00;;;12.30
41593;BMP180;28026;48.562;14.440;2024-01-27T12:04:12;95129.00;;;12.30
41593;BMP180;28026;48.562;14.440;2024-01-27T12:06:44;95135.00;;;12.50
41593;BMP180;28026;48.562;14.440;2024-01-27T12:09:16;95131.00;;;12.70
41593;BMP180;28026;48.562;14.440;2024-01-27T12:11:48;95128.00;;;12.80
41593;BMP180;28026;48.562;14.440;2024-01-27T12:14:19;95146.00;;;12.80
41593;BMP180;28026;48.562;14.440;2024-01-27T12:16:51;95138.00;;;12.80
41593;BMP180;28026;48.562;14.440;2024-01-27T12:19:24;95145.00;;;12.80
41593;BMP180;28026;48.562;14.440;2024-01-27T12:21:54;95143.00;;;12.70
41593;BMP180;28026;48.562;14.440;2024-01-27T12:24:25;95145.00;;;12.70
41593;BMP180;28026;48.562;14.440;2024-01-27T12:26:56;95149.00;;;12.70
41593;BMP180;28026;48.562;14.440;2024-01-27T12:29:30;95154.00;;;12.70
41593;BMP180;28026;48.562;14.440;2024-01-27T12:32:01;95149.00;;;12.60
41593;BMP180;28026;48.562;14.440;2024-01-27T12:34:32;95156.00;;;12.60
41593;BMP180;28026;48.562;14.440;2024-01-27T12:37:03;95162.00;;;12.70
41593;BMP180;28026;48.562;14.440;2024-01-27T12:39:34;95167.00;;;12.70
41593;BMP180;28026;48.562;14.440;2024-01-27T12:42:05;95162.00;;;12.70
41593;BMP180;28026;48.562;14.440;2024-01-27T12:44:36;95164.00;;;12.60
41593;BMP180;28026;48.562;14.440;2024-01-27T12:47:07;95153.00;;;12.60
41593;BMP180;28026;48.562;14.440;2024-01-27T12:49:40;95150.00;;;12.60
41593;BMP180;28026;48.562;14.440;2024-01-27T12:52:13;95153.00;;;12.60
41593;BMP180;28026;48.562;14.440;2024-01-27T12:54:45;95152.00;;;12.70
41593;BMP180;28026;48.562;14.440;2024-01-27T12:57:16;95154.00;;;12.80
41593;BMP180;28026;48.562;14.440;2024-01-27T12:59:48;95157.00;;;12.80
41593;BMP180;28026;48.562;14.440;2024-01-27T13:02:19;95140.00;;;12.70
41593;BMP180;28026;48.562;14.440;2024-01-27T13:04:49;95150.00;;;12.80
41593;BMP180;28026;48.562;14.440;2024-01-27T13:07:20;95148.00;;;12.80
41593;BMP180;28026;48.562;14.440;2024-01-27T13:09:51;95143.00;;;12.60
41593;BMP180;28026;48.562;14.440;2024-01-27T13:12:22;95152.00;;;12.50
41593;BMP180;28026;48.562;14.440;2024-01-27T13:14:53;95142.00;;;12.30
41593;BMP180;28026;48.562;14.440;2024-01-27T13:17:25;95133.00;;;12.20
41593;BMP180;28026;48.562;14.440;2024-01-27T13:19:56;95144.00;;;12.00
41593;BMP180;28026;48.562;14.440;2024-01-27T13:22:27;95142.00;;;12.00
41593;BMP180;28026;48.562;14.440;2024-01-27T13:24:58;95149.00;;;11.90
41593;BMP180;28026;48.562;14.440;2024-01-27T13:27:32;95154.00;;;11.90
41593;BMP180;28026;48.562;14.440;2024-01-27T13:30:05;95146.00;;;11.80
41593;BMP180;28026;48.562;14.440;2024-01-27T13:32:38;95163.00;;;11.80
41593;BMP180;28026;48.562;14.440;2024-01-27T13:35:10;95163.00;;;11.90
41593;BMP180;28026;48.562;14.440;2024-01-27T13:37:40;95161.00;;;12.00
41593;BMP180;28026;48.562;14.440;2024-01-27T13:40:11;95168.00;;;12.00
41593;BMP180;28026;48.562;14.440;2024-01-27T13:42:42;95164.00;;;12.10
41593;BMP180;28026;48.562;14.440;2024-01-27T13:45:13;95166.00;;;12.10
41593;BMP180;28026;48.562;14.440;2024-01-27T13:47:44;95167.00;;;12.10
41593;BMP180;28026;48.562;14.440;2024-01-27T13:50:15;95171.00;;;12.20
41593;BMP180;28026;48.562;14.440;2024-01-27T13:52:46;95173.00;;;12.30
41593;BMP180;28026;48.562;14.440;2024-01-27T13:55:18;95176.00;;;12.30
41593;BMP180;28026;48.562;14.440;2024-01-27T13:57:50;95168.00;;;12.30
41593;BMP180;28026;48.562;14.440;2024-01-27T14:00:21;95177.00;;;12.40
41593;BMP180;28026;48.562;14.440;2024-01-27T14:02:52;95178.00;;;12.30
41593;BMP180;28026;48.562;14.440;2024-01-27T14:05:23;95189.00;;;12.30
41593;BMP180;28026;48.562;14.440;2024-01-27T14:07:54;95197.00;;;12.30
41593;BMP180;28026;48.562;14.440;2024-01-27T14:10:26;95196.00;;;12.30
41593;BMP180;28026;48.562;14.440;2024-01-27T14:12:57;95190.00;;;12.20
41593;BMP180;28026;48.562;14.440;2024-01-27T14:15:28;95191.00;;;12.20
41593;BMP180;28026;48.562;14.440;2024-01-27T14:17:59;95190.00;;;12.20
41593;BMP180;28026;48.562;14.440;2024-01-27T14:20:30;95191.00;;;12.10
41593;BMP180;28026;48.562;14.440;2024-01-27T14:23:01;95189.00;;;12.10
41593;BMP180;28026;48.562;14.440;2024-01-27T14:25:31;95188.00;;;12.10
41593;BMP180;28026;48.562;14.440;2024-01-27T14:28:02;95181.00;;;12.10
41593;BMP180;28026;48.562;14.440;2024-01-27T14:30:33;95177.00;;;12.10
41593;BMP180;28026;48.562;14.440;2024-01-27T14:33:05;95191.00;;;12.10
41593;BMP180;28026;48.562;14.440;2024-01-27T14:35:36;95189.00;;;12.10
41593;BMP180;28026;48.562;14.440;2024-01-27T14:38:07;95193.00;;;12.00
41593;BMP180;28026;48.562;14.440;2024-01-27T14:40:39;95196.00;;;12.00
41593;BMP180;28026;48.562;14.440;2024-01-27T14:43:10;95196.00;;;12.00